createdAt,value
2022-12-11T00:00:08.269Z,62.52
2022-12-11T00:05:31.222Z,60.54
2022-12-11T00:10:37.853Z,60.04
2022-12-11T00:15:41.228Z,62.19
2022-12-11T00:20:44.441Z,63.18
2022-12-11T00:25:48.266Z,62.63
2022-12-11T00:30:51.374Z,63.67
2022-12-11T00:35:54.585Z,64.65
2022-12-11T00:41:00.769Z,61.86
2022-12-11T00:46:04.179Z,61.74
2022-12-11T00:51:08.320Z,66.15
2022-12-11T00:56:18.391Z,67.13
2022-12-11T01:01:24.439Z,65.66
2022-12-11T01:06:28.602Z,67.17
2022-12-11T01:11:31.499Z,65.57
2022-12-11T01:16:34.709Z,65.84
2022-12-11T01:21:37.717Z,67.85
2022-12-11T01:26:40.829Z,69.38
2022-12-11T01:31:43.831Z,69.83
2022-12-11T01:36:46.737Z,68.57
2022-12-11T01:41:49.948Z,68.85
2022-12-11T01:46:53.666Z,65.69
2022-12-11T01:52:06.818Z,65.97
2022-12-11T01:57:11.750Z,66.72
2022-12-11T02:02:26.317Z,65.87
2022-12-11T02:07:51.741Z,65.88
2022-12-11T02:13:03.039Z,67.99
2022-12-11T02:18:22.671Z,68.26
2022-12-11T02:23:59.063Z,66.73
2022-12-11T02:29:06.644Z,69.27
2022-12-11T02:34:21.560Z,70.11
2022-12-11T02:39:27.244Z,67.78
2022-12-11T02:44:34.179Z,68.16
2022-12-11T02:49:39.077Z,67.15
2022-12-11T02:54:45.159Z,68.95
2022-12-11T02:59:48.266Z,70.22
2022-12-11T03:04:51.845Z,68.15
2022-12-11T03:09:55.199Z,64.29
2022-12-11T03:15:02.063Z,63.01
2022-12-11T03:20:08.151Z,61.88
2022-12-11T03:25:50.915Z,62.50
2022-12-11T03:30:54.448Z,66.58
2022-12-11T03:36:04.156Z,66.75
2022-12-11T03:41:09.560Z,68.89
2022-12-11T03:46:15.286Z,72.25
2022-12-11T03:51:19.155Z,71.21
2022-12-11T03:56:24.210Z,71.81
2022-12-11T04:01:27.675Z,67.35
2022-12-11T04:06:30.938Z,66.47
2022-12-11T04:11:37.004Z,67.90
2022-12-11T04:16:39.920Z,69.26
2022-12-11T04:22:01.360Z,71.98
2022-12-11T04:27:04.470Z,72.98
2022-12-11T04:32:07.474Z,73.33
2022-12-11T04:37:10.479Z,71.47
2022-12-11T04:42:13.699Z,69.17
2022-12-11T04:47:17.009Z,66.07
2022-12-11T04:52:20.013Z,66.56
2022-12-11T04:57:23.120Z,68.91
2022-12-11T05:02:27.166Z,70.34
2022-12-11T05:07:30.567Z,70.86
2022-12-11T05:12:33.981Z,71.95
2022-12-11T05:17:36.987Z,72.56
2022-12-11T05:22:39.994Z,70.37
2022-12-11T05:27:43.105Z,66.33
2022-12-11T05:32:46.620Z,67.89
2022-12-11T05:37:49.734Z,69.74
2022-12-11T05:42:52.736Z,68.44
2022-12-11T05:47:55.845Z,67.74
2022-12-11T05:52:58.853Z,70.40
2022-12-11T05:58:01.858Z,69.25
2022-12-11T06:03:04.906Z,66.78
2022-12-11T06:08:08.358Z,66.72
2022-12-11T06:13:11.490Z,68.95
2022-12-11T06:18:14.395Z,70.37
2022-12-11T06:23:17.302Z,69.36
2022-12-11T06:28:20.305Z,68.12
2022-12-11T06:33:23.413Z,63.45
2022-12-11T06:38:26.422Z,60.52
2022-12-11T06:43:29.426Z,60.47
2022-12-11T06:48:33.118Z,66.60
2022-12-11T06:53:36.929Z,65.81
2022-12-11T06:58:41.076Z,62.81
2022-12-11T07:03:44.529Z,61.90
2022-12-11T07:08:47.535Z,61.19
2022-12-11T07:13:50.848Z,61.26
2022-12-11T07:18:53.865Z,62.27
2022-12-11T07:23:56.959Z,66.37
2022-12-11T07:29:00.480Z,65.99
2022-12-11T07:34:06.359Z,66.62
2022-12-11T07:39:12.027Z,65.21
2022-12-11T07:44:15.141Z,65.24
2022-12-11T07:49:18.136Z,68.66
2022-12-11T07:54:21.857Z,67.21
2022-12-11T07:59:24.880Z,69.05
2022-12-11T08:04:27.868Z,69.27
2022-12-11T08:09:31.190Z,68.86
2022-12-11T08:14:34.298Z,69.76
2022-12-11T08:19:37.305Z,68.69
2022-12-11T08:24:40.719Z,68.21
2022-12-11T08:29:43.826Z,65.69
2022-12-11T08:34:46.831Z,69.21
2022-12-11T08:39:49.836Z,69.99
2022-12-11T08:44:52.842Z,67.26
2022-12-11T08:49:56.975Z,63.86
2022-12-11T08:54:59.983Z,68.54
2022-12-11T09:00:03.404Z,70.27
2022-12-11T09:05:08.359Z,69.04
2022-12-11T09:10:11.553Z,66.28
2022-12-11T09:15:14.778Z,69.80
2022-12-11T09:20:18.091Z,70.04
2022-12-11T09:25:21.135Z,69.16
2022-12-11T09:30:24.206Z,68.02
2022-12-11T09:35:27.895Z,69.55
2022-12-11T09:40:32.556Z,69.60
2022-12-11T09:45:35.580Z,69.81
2022-12-11T09:50:40.150Z,70.62
2022-12-11T09:56:05.141Z,69.96
2022-12-11T10:01:20.572Z,68.84
2022-12-11T10:06:35.643Z,65.57
2022-12-11T10:11:54.461Z,65.47
2022-12-11T10:17:05.196Z,67.35
2022-12-11T10:22:19.072Z,66.15
2022-12-11T10:27:26.973Z,68.08
2022-12-11T10:32:50.055Z,70.51
2022-12-11T10:37:58.305Z,70.47
2022-12-11T10:43:01.268Z,71.01
2022-12-11T10:48:11.515Z,70.60
2022-12-11T10:53:21.433Z,69.60
2022-12-11T10:58:28.847Z,69.89
2022-12-11T11:03:33.687Z,69.13
2022-12-11T11:08:44.271Z,68.77
2022-12-11T11:13:52.835Z,69.70
2022-12-11T11:18:58.345Z,71.54
2022-12-11T11:24:01.484Z,71.60
2022-12-11T11:29:04.887Z,74.01
2022-12-11T11:34:10.950Z,73.11
2022-12-11T11:39:28.630Z,73.69
2022-12-11T11:44:42.182Z,74.54
2022-12-11T11:50:16.012Z,74.00
2022-12-11T11:55:45.565Z,71.80
2022-12-11T12:00:49.322Z,68.87
2022-12-11T12:06:18.080Z,70.20
2022-12-11T12:11:32.653Z,71.72
2022-12-11T12:16:59.859Z,68.88
2022-12-11T12:22:21.061Z,69.50
2022-12-11T12:27:54.022Z,68.22
2022-12-11T12:33:09.158Z,68.83
2022-12-11T12:38:23.672Z,67.72
2022-12-11T12:43:58.940Z,68.90
2022-12-11T12:49:04.347Z,66.16
2022-12-11T12:54:12.599Z,68.54
2022-12-11T12:59:24.381Z,67.43
2022-12-11T13:04:59.461Z,67.09
2022-12-11T13:10:24.382Z,67.86
2022-12-11T13:15:30.565Z,68.68
2022-12-11T13:20:34.904Z,70.56
2022-12-11T13:25:55.927Z,71.59
2022-12-11T13:31:16.294Z,73.21
2022-12-11T13:36:35.366Z,73.31
2022-12-11T13:41:39.037Z,71.24
2022-12-11T13:46:44.291Z,69.86
2022-12-11T13:51:59.144Z,70.44
2022-12-11T13:57:16.605Z,69.82
2022-12-11T14:02:40.514Z,70.80
2022-12-11T14:07:49.225Z,71.83
2022-12-11T14:13:33.862Z,70.76
2022-12-11T14:18:37.484Z,68.93
2022-12-11T14:23:40.684Z,72.02
2022-12-11T14:28:44.205Z,70.50
2022-12-11T14:33:56.243Z,70.38
2022-12-11T14:39:04.993Z,69.44
2022-12-11T14:44:14.530Z,70.32
2022-12-11T14:49:21.324Z,68.26
2022-12-11T14:54:30.262Z,68.80
2022-12-11T14:59:41.571Z,70.45
2022-12-11T15:04:45.671Z,70.62
2022-12-11T15:09:51.866Z,68.00
2022-12-11T15:14:58.618Z,68.15
2022-12-11T15:20:20.839Z,68.61
2022-12-11T15:25:27.221Z,70.13
2022-12-11T15:30:34.491Z,68.38
2022-12-11T15:35:40.086Z,68.10
2022-12-11T15:40:43.201Z,69.45
2022-12-11T15:45:46.460Z,69.23
2022-12-11T15:50:49.927Z,68.58
2022-12-11T15:55:53.885Z,68.37
2022-12-11T16:00:57.986Z,70.69
2022-12-11T16:06:01.104Z,72.05
2022-12-11T16:11:04.409Z,71.93
2022-12-11T16:16:07.873Z,72.52
2022-12-11T16:21:11.039Z,71.77
2022-12-11T16:26:15.897Z,69.00
2022-12-11T16:31:18.911Z,68.43
2022-12-11T16:36:22.528Z,67.67
2022-12-11T16:41:25.518Z,70.50
2022-12-11T16:46:28.553Z,69.83
2022-12-11T16:51:31.640Z,70.72
2022-12-11T16:56:34.748Z,70.99
2022-12-11T17:01:37.815Z,71.62
2022-12-11T17:06:41.475Z,71.84
2022-12-11T17:11:44.785Z,69.70
2022-12-11T17:16:48.393Z,69.65
2022-12-11T17:21:52.033Z,70.08
2022-12-11T17:26:56.043Z,70.27
2022-12-11T17:31:59.587Z,69.63
2022-12-11T17:37:02.685Z,68.32
2022-12-11T17:42:06.676Z,67.56
2022-12-11T17:47:12.185Z,68.77
2022-12-11T17:52:15.393Z,67.96
2022-12-11T17:57:18.399Z,66.94
2022-12-11T18:02:21.510Z,67.29
2022-12-11T18:07:25.423Z,67.51
2022-12-11T18:12:31.208Z,68.85
2022-12-11T18:17:35.550Z,69.08
2022-12-11T18:22:38.860Z,69.82
2022-12-11T18:27:41.964Z,68.64
2022-12-11T18:32:45.381Z,67.60
2022-12-11T18:37:48.493Z,68.71
2022-12-11T18:42:51.493Z,69.50
2022-12-11T18:47:56.658Z,67.40
2022-12-11T18:52:59.659Z,68.50
2022-12-11T18:58:03.388Z,69.21
2022-12-11T19:03:07.316Z,69.63
2022-12-11T19:08:12.659Z,70.73
2022-12-11T19:13:15.881Z,68.41
2022-12-11T19:18:18.997Z,68.08
2022-12-11T19:23:23.326Z,69.69
2022-12-11T19:28:26.538Z,69.44
2022-12-11T19:33:29.873Z,68.65
2022-12-11T19:38:33.274Z,68.70
2022-12-11T19:43:37.001Z,66.90
2022-12-11T19:48:41.864Z,64.82
2022-12-11T19:53:45.971Z,64.92
2022-12-11T19:58:49.188Z,66.17
2022-12-11T20:03:53.724Z,67.57
2022-12-11T20:08:56.775Z,67.95
2022-12-11T20:14:00.154Z,67.26
2022-12-11T20:19:05.205Z,67.60
2022-12-11T20:24:09.752Z,68.71
2022-12-11T20:29:13.467Z,68.26
2022-12-11T20:34:16.783Z,68.45
2022-12-11T20:39:19.894Z,68.50
2022-12-11T20:44:22.903Z,68.74
2022-12-11T20:49:26.119Z,69.07
2022-12-11T20:54:29.232Z,69.84
2022-12-11T20:59:32.331Z,69.60
2022-12-11T21:04:41.075Z,68.44
2022-12-11T21:09:43.970Z,67.19
2022-12-11T21:14:46.979Z,67.36
2022-12-11T21:19:51.423Z,67.17
2022-12-11T21:24:54.427Z,67.17
2022-12-11T21:29:57.736Z,65.91
2022-12-11T21:35:01.203Z,64.69
2022-12-11T21:40:05.085Z,65.16
2022-12-11T21:45:52.175Z,64.80
2022-12-11T21:50:31.781Z,64.67
2022-12-11T21:55:34.791Z,64.06
2022-12-11T22:00:39.204Z,64.46
2022-12-11T22:05:42.239Z,64.30
2022-12-11T22:10:45.561Z,63.85
2022-12-11T22:15:48.980Z,63.83
2022-12-11T22:20:52.068Z,62.91
2022-12-11T22:25:55.055Z,63.01
2022-12-11T22:30:58.221Z,63.53
2022-12-11T22:36:01.297Z,63.80
2022-12-11T22:41:25.502Z,63.23
2022-12-11T22:46:30.148Z,63.19
2022-12-11T22:51:33.467Z,64.13
2022-12-11T22:56:36.670Z,64.63
2022-12-11T23:01:39.884Z,64.54
2022-12-11T23:06:43.088Z,65.21
2022-12-11T23:11:46.204Z,66.57
2022-12-11T23:16:49.376Z,67.39
2022-12-11T23:21:53.040Z,67.47
2022-12-11T23:26:56.137Z,67.81
2022-12-11T23:31:59.247Z,68.79
2022-12-11T23:37:02.416Z,69.70
2022-12-11T23:42:05.671Z,69.20
2022-12-11T23:47:08.573Z,68.88
2022-12-11T23:52:12.506Z,68.69
2022-12-11T23:57:16.125Z,67.82
